createdAt,value
2018-02-06T00:00:12.254Z,18.80
2018-02-06T00:01:12.239Z,20.10
2018-02-06T00:02:12.223Z,20.70
2018-02-06T00:03:12.218Z,22.50
2018-02-06T00:04:12.201Z,22.30
2018-02-06T00:05:12.191Z,19.90
2018-02-06T00:06:12.179Z,19.70
2018-02-06T00:07:12.170Z,19.70
2018-02-06T00:08:12.154Z,21.20
2018-02-06T00:09:12.139Z,20.20
2018-02-06T00:10:12.131Z,19.70
2018-02-06T00:11:12.120Z,19.30
2018-02-06T00:12:12.101Z,19.00
2018-02-06T00:13:12.094Z,18.10
2018-02-06T00:14:12.080Z,19.10
2018-02-06T00:15:12.065Z,19.30
2018-02-06T00:16:12.058Z,19.70
2018-02-06T00:17:12.037Z,19.40
2018-02-06T00:18:12.028Z,19.00
2018-02-06T00:19:12.018Z,18.80
2018-02-06T00:20:12.002Z,18.70
2018-02-06T00:21:11.996Z,18.50
2018-02-06T00:22:11.978Z,18.10
2018-02-06T00:23:11.965Z,18.80
2018-02-06T00:24:11.953Z,18.30
2018-02-06T00:25:11.939Z,18.70
2018-02-06T00:26:11.929Z,18.40
2018-02-06T00:27:11.915Z,19.70
2018-02-06T00:28:11.902Z,19.70
2018-02-06T00:29:11.892Z,18.90
2018-02-06T00:30:11.878Z,18.50
2018-02-06T00:31:11.865Z,18.70
2018-02-06T00:32:11.858Z,19.30
2018-02-06T00:33:11.841Z,18.50
2018-02-06T00:34:11.879Z,17.90
2018-02-06T00:35:11.820Z,17.80
2018-02-06T00:36:11.801Z,17.70
2018-02-06T00:37:11.788Z,17.70
2018-02-06T00:38:11.778Z,17.30
2018-02-06T00:39:11.766Z,18.10
2018-02-06T00:40:11.755Z,18.40
2018-02-06T00:41:11.740Z,19.00
2018-02-06T00:42:11.728Z,17.60
2018-02-06T00:43:11.716Z,18.40
2018-02-06T00:44:11.702Z,18.60
2018-02-06T00:45:11.689Z,18.30
2018-02-06T00:46:11.678Z,17.90
2018-02-06T00:47:11.666Z,18.20
2018-02-06T00:48:11.659Z,17.70
2018-02-06T00:49:11.641Z,17.90
2018-02-06T00:50:11.622Z,18.30
2018-02-06T00:51:11.617Z,18.40
2018-02-06T00:52:11.603Z,18.10
2018-02-06T00:53:11.590Z,17.60
2018-02-06T00:54:11.578Z,18.50
2018-02-06T00:55:11.585Z,18.20
2018-02-06T00:56:11.554Z,18.40
2018-02-06T00:57:11.537Z,18.70
2018-02-06T00:58:11.528Z,18.20
2018-02-06T00:59:11.515Z,17.90
2018-02-06T01:00:11.500Z,18.10
2018-02-06T01:01:11.489Z,18.60
2018-02-06T01:02:11.478Z,18.60
2018-02-06T01:03:11.465Z,18.90
2018-02-06T01:04:11.456Z,18.50
2018-02-06T01:05:11.440Z,18.90
2018-02-06T01:06:11.424Z,18.30
2018-02-06T01:07:11.417Z,18.50
2018-02-06T01:08:11.400Z,19.10
2018-02-06T01:09:11.390Z,19.90
2018-02-06T01:10:11.378Z,20.60
2018-02-06T01:11:11.366Z,19.60
2018-02-06T01:12:11.353Z,19.40
2018-02-06T01:13:11.338Z,19.20
2018-02-06T01:14:11.327Z,18.90
2018-02-06T01:15:11.313Z,19.40
2018-02-06T01:16:11.300Z,18.10
2018-02-06T01:17:11.288Z,18.50
2018-02-06T01:18:11.275Z,18.60
2018-02-06T01:19:11.262Z,18.50
2018-02-06T01:20:11.249Z,18.40
2018-02-06T01:21:11.240Z,18.30
2018-02-06T01:22:11.224Z,18.90
2018-02-06T01:23:11.214Z,18.80
2018-02-06T01:24:11.198Z,19.10
2018-02-06T01:25:11.189Z,19.30
2018-02-06T01:26:11.179Z,18.20
2018-02-06T01:27:11.163Z,18.90
2018-02-06T01:28:11.149Z,19.10
2018-02-06T01:29:11.137Z,18.90
2018-02-06T01:30:11.125Z,18.90
2018-02-06T01:31:11.112Z,19.00
2018-02-06T01:32:11.099Z,19.50
2018-02-06T01:33:11.086Z,19.90
2018-02-06T01:34:11.074Z,20.70
2018-02-06T01:35:11.062Z,22.10
2018-02-06T01:36:11.048Z,21.40
2018-02-06T01:37:11.035Z,21.60
2018-02-06T01:38:11.020Z,21.70
2018-02-06T01:39:11.014Z,19.30
2018-02-06T01:40:11.001Z,18.50
2018-02-06T01:41:10.988Z,18.50
2018-02-06T01:42:10.974Z,18.40
2018-02-06T01:43:10.955Z,18.90
2018-02-06T01:44:10.948Z,18.50
2018-02-06T01:45:10.931Z,19.00
2018-02-06T01:46:10.922Z,18.90
2018-02-06T01:47:10.911Z,18.80
2018-02-06T01:48:10.897Z,17.70
2018-02-06T01:49:10.884Z,18.20
2018-02-06T01:50:10.871Z,17.70
2018-02-06T01:51:10.866Z,18.20
2018-02-06T01:52:10.847Z,18.10
2018-02-06T01:53:10.837Z,17.60
2018-02-06T01:54:10.818Z,17.80
2018-02-06T01:55:10.808Z,17.80
2018-02-06T01:56:10.795Z,16.40
2018-02-06T01:57:10.788Z,17.20
2018-02-06T01:58:10.769Z,17.50
2018-02-06T01:59:10.755Z,18.10
2018-02-06T02:00:10.746Z,17.70
2018-02-06T02:01:10.730Z,18.20
2018-02-06T02:02:10.719Z,18.00
2018-02-06T02:03:10.710Z,19.60
2018-02-06T02:04:10.696Z,19.40
2018-02-06T02:05:10.682Z,19.10
2018-02-06T02:06:10.665Z,19.50
2018-02-06T02:07:10.657Z,18.70
2018-02-06T02:08:10.647Z,18.80
2018-02-06T02:09:10.631Z,19.10
2018-02-06T02:10:10.617Z,20.80
2018-02-06T02:11:10.604Z,20.80
2018-02-06T02:12:10.592Z,19.50
2018-02-06T02:13:10.605Z,19.40
2018-02-06T02:14:10.568Z,18.60
2018-02-06T02:15:10.553Z,18.60
2018-02-06T02:16:10.537Z,17.10
2018-02-06T02:17:10.530Z,17.70
2018-02-06T02:18:10.521Z,17.30
2018-02-06T02:19:10.502Z,16.80
2018-02-06T02:20:10.485Z,17.20
2018-02-06T02:21:10.477Z,16.80
2018-02-06T02:22:10.462Z,17.90
2018-02-06T02:23:10.451Z,17.80
2018-02-06T02:24:10.437Z,18.10
2018-02-06T02:25:10.425Z,17.80
2018-02-06T02:26:10.417Z,18.20
2018-02-06T02:27:10.399Z,19.20
2018-02-06T02:28:10.387Z,18.90
2018-02-06T02:29:10.375Z,18.20
2018-02-06T02:30:10.363Z,17.30
2018-02-06T02:31:10.348Z,18.50
2018-02-06T02:32:10.335Z,18.30
2018-02-06T02:33:10.323Z,17.40
2018-02-06T02:34:10.309Z,17.50
2018-02-06T02:35:10.302Z,18.00
2018-02-06T02:36:10.282Z,17.90
2018-02-06T02:37:10.272Z,18.70
2018-02-06T02:38:10.261Z,18.10
2018-02-06T02:39:10.251Z,18.20
2018-02-06T02:40:10.232Z,18.40
2018-02-06T02:41:10.217Z,17.30
2018-02-06T04:39:08.682Z,18.90
2018-02-06T04:40:08.665Z,19.50
2018-02-06T04:41:08.652Z,17.80
2018-02-06T04:42:08.640Z,18.00
2018-02-06T04:43:08.626Z,18.20
2018-02-06T04:44:08.612Z,17.80
2018-02-06T04:45:08.600Z,18.00
2018-02-06T04:46:08.585Z,18.30
2018-02-06T04:47:08.574Z,17.70
2018-02-06T04:48:08.559Z,18.00
2018-02-06T04:49:08.554Z,18.10
2018-02-06T04:50:08.535Z,18.30
2018-02-06T04:51:08.521Z,17.30
2018-02-06T04:52:08.506Z,18.30
2018-02-06T04:53:08.494Z,18.70
2018-02-06T04:54:08.481Z,18.90
2018-02-06T04:55:08.468Z,18.20
2018-02-06T04:56:08.454Z,20.20
2018-02-06T04:57:08.439Z,19.00
2018-02-06T04:58:08.429Z,18.10
2018-02-06T04:59:08.414Z,19.40
2018-02-06T05:00:08.420Z,19.70
2018-02-06T05:01:08.388Z,18.90
2018-02-06T05:02:08.374Z,18.40
2018-02-06T05:03:08.362Z,19.50
2018-02-06T05:04:08.351Z,19.40
2018-02-06T05:05:08.353Z,19.60
2018-02-06T05:06:08.323Z,20.80
2018-02-06T05:07:08.312Z,20.90
2018-02-06T05:08:08.295Z,21.20
2018-02-06T05:09:08.283Z,21.60
2018-02-06T05:10:08.270Z,20.10
2018-02-06T05:11:08.259Z,21.30
2018-02-06T05:12:08.245Z,21.40
2018-02-06T05:13:08.229Z,20.40
2018-02-06T05:14:08.216Z,20.10
2018-02-06T05:15:08.212Z,19.30
2018-02-06T05:16:08.190Z,18.60
2018-02-06T05:17:08.178Z,18.40
2018-02-06T05:18:08.165Z,19.80
2018-02-06T05:19:08.151Z,18.20
2018-02-06T05:20:08.137Z,18.50
2018-02-06T05:21:08.124Z,18.90
2018-02-06T05:22:08.110Z,19.80
2018-02-06T05:23:08.102Z,20.00
2018-02-06T05:24:08.078Z,21.40
2018-02-06T05:25:08.085Z,22.60
2018-02-06T05:26:08.056Z,20.10
2018-02-06T05:27:08.044Z,19.70
2018-02-06T05:28:08.034Z,20.00
2018-02-06T05:29:08.014Z,19.60
2018-02-06T05:30:08.005Z,18.60
2018-02-06T05:31:07.991Z,18.40
2018-02-06T05:32:07.976Z,19.50
2018-02-06T05:33:07.964Z,19.10
2018-02-06T05:34:07.950Z,19.00
2018-02-06T05:35:07.937Z,19.20
2018-02-06T05:36:07.923Z,19.80
2018-02-06T05:37:07.912Z,19.70
2018-02-06T05:38:07.897Z,20.30
2018-02-06T05:39:07.880Z,19.70
2018-02-06T05:40:07.868Z,21.00
2018-02-06T05:41:07.859Z,21.60
2018-02-06T05:42:07.841Z,21.90
2018-02-06T05:43:07.829Z,21.40
2018-02-06T05:44:07.816Z,22.20
2018-02-06T05:45:07.853Z,20.60
2018-02-06T05:46:07.789Z,20.90
2018-02-06T05:47:07.774Z,20.70
2018-02-06T05:48:07.763Z,20.50
2018-02-06T05:49:07.749Z,21.10
2018-02-06T05:50:07.736Z,19.60
2018-02-06T05:51:07.733Z,19.90
2018-02-06T05:52:07.709Z,20.30
2018-02-06T05:53:07.696Z,19.30
2018-02-06T05:54:07.684Z,20.20
2018-02-06T05:55:07.670Z,19.50
2018-02-06T05:56:07.675Z,20.30
2018-02-06T05:57:07.639Z,19.90
2018-02-06T05:58:07.629Z,20.00
2018-02-06T05:59:07.616Z,20.40
2018-02-06T06:00:07.621Z,20.10
2018-02-06T06:01:07.590Z,20.80
2018-02-06T06:02:07.578Z,19.30
2018-02-06T06:03:07.563Z,20.80
2018-02-06T06:04:07.551Z,20.60
2018-02-06T06:05:07.533Z,20.10
2018-02-06T06:06:07.524Z,19.70
2018-02-06T06:07:07.510Z,20.70
2018-02-06T06:08:07.494Z,20.40
2018-02-06T06:09:07.482Z,21.00
2018-02-06T06:10:07.469Z,19.60
2018-02-06T06:11:07.457Z,20.40
2018-02-06T06:12:07.442Z,18.80
2018-02-06T06:13:07.431Z,18.90
2018-02-06T06:14:07.416Z,20.40
2018-02-06T06:15:07.404Z,20.40
2018-02-06T06:16:07.389Z,21.40
2018-02-06T06:17:07.376Z,21.60
2018-02-06T06:18:07.364Z,21.00
2018-02-06T06:19:07.350Z,21.90
2018-02-06T06:20:07.335Z,22.20
2018-02-06T06:21:07.328Z,23.70
2018-02-06T06:22:07.313Z,24.20
2018-02-06T06:23:07.296Z,23.70
2018-02-06T06:24:07.283Z,23.90
2018-02-06T06:25:07.271Z,22.70
2018-02-06T06:26:07.254Z,22.00
2018-02-06T06:27:07.246Z,23.70
2018-02-06T06:28:07.232Z,23.00
2018-02-06T06:29:07.215Z,22.80
2018-02-06T06:30:07.203Z,22.30
2018-02-06T06:31:07.213Z,24.00
2018-02-06T06:32:07.225Z,21.30
2018-02-06T06:33:07.160Z,20.70
2018-02-06T06:34:07.148Z,20.20
2018-02-06T06:35:07.194Z,20.90
2018-02-06T06:36:07.126Z,21.50
2018-02-06T06:37:07.106Z,22.00
2018-02-06T06:38:07.095Z,20.00
2018-02-06T06:39:07.083Z,21.60
2018-02-06T06:40:07.066Z,22.50
2018-02-06T06:41:07.054Z,22.90
2018-02-06T06:42:07.037Z,22.10
2018-02-06T06:43:07.025Z,21.90
2018-02-06T06:44:07.013Z,21.80
2018-02-06T06:45:07.001Z,22.30
2018-02-06T06:46:06.985Z,22.30
2018-02-06T06:47:06.978Z,22.00
2018-02-06T06:48:06.959Z,23.20
2018-02-06T06:49:06.948Z,24.20
2018-02-06T06:50:06.932Z,22.70
2018-02-06T06:51:06.921Z,22.20
2018-02-06T06:52:06.907Z,22.30
2018-02-06T06:53:06.887Z,24.80
2018-02-06T06:54:06.881Z,23.50
2018-02-06T06:55:06.957Z,23.00
2018-02-06T06:56:06.851Z,23.20
2018-02-06T06:57:06.839Z,23.60
2018-02-06T06:58:06.828Z,24.20
2018-02-06T06:59:06.813Z,23.10
2018-02-06T07:00:06.796Z,23.10
2018-02-06T07:01:06.783Z,22.80
2018-02-06T07:02:06.776Z,25.60
2018-02-06T07:03:06.758Z,23.70
2018-02-06T07:04:06.750Z,25.00
2018-02-06T07:05:06.732Z,26.60
2018-02-06T07:06:06.719Z,25.80
2018-02-06T07:07:06.704Z,26.10
2018-02-06T07:08:06.690Z,27.40
2018-02-06T07:09:06.677Z,27.80
2018-02-06T07:10:06.664Z,26.50
2018-02-06T07:11:06.655Z,27.00
2018-02-06T07:12:06.636Z,28.00
2018-02-06T07:13:06.632Z,27.40
2018-02-06T07:14:06.614Z,26.30
2018-02-06T07:15:06.600Z,26.60
2018-02-06T07:16:06.584Z,27.70
2018-02-06T07:17:06.570Z,28.50
2018-02-06T07:18:06.558Z,25.90
2018-02-06T07:19:06.544Z,26.00
2018-02-06T07:20:06.532Z,26.30
2018-02-06T07:21:06.518Z,26.70
2018-02-06T07:22:06.533Z,26.30
2018-02-06T07:23:06.491Z,26.40
2018-02-06T07:24:06.477Z,25.30
2018-02-06T07:25:06.464Z,24.40
2018-02-06T07:26:06.451Z,25.60
2018-02-06T07:27:06.446Z,26.30
2018-02-06T07:28:06.421Z,24.80
2018-02-06T07:29:06.408Z,24.30
2018-02-06T07:30:06.397Z,23.80
2018-02-06T07:31:06.384Z,22.70
2018-02-06T07:32:06.371Z,24.10
2018-02-06T07:33:06.356Z,23.90
2018-02-06T07:34:06.344Z,23.30
2018-02-06T07:35:06.331Z,23.50
2018-02-06T07:36:06.338Z,23.20
2018-02-06T07:37:06.305Z,23.30
2018-02-06T07:38:06.293Z,22.60
2018-02-06T07:39:06.284Z,24.10
2018-02-06T07:40:06.264Z,24.30
2018-02-06T07:41:06.252Z,25.00
2018-02-06T07:42:06.239Z,24.10
2018-02-06T07:43:06.224Z,25.00
2018-02-06T07:44:06.214Z,24.90
2018-02-06T07:45:06.218Z,24.30
2018-02-06T07:46:06.187Z,24.90
2018-02-06T07:47:06.173Z,24.60
2018-02-06T07:48:06.161Z,25.30
2018-02-06T07:49:06.147Z,25.10
2018-02-06T07:50:06.133Z,25.70
2018-02-06T07:51:06.119Z,25.50
2018-02-06T07:52:06.106Z,25.80
2018-02-06T07:53:06.096Z,24.30
2018-02-06T07:54:06.082Z,25.20
2018-02-06T07:55:06.066Z,25.00
2018-02-06T07:56:06.052Z,24.00
2018-02-06T07:57:06.042Z,24.10
2018-02-06T07:58:06.027Z,24.20
2018-02-06T07:59:06.015Z,25.20
2018-02-06T08:00:05.998Z,25.80
2018-02-06T08:01:05.985Z,25.00
2018-02-06T08:02:05.972Z,24.10
2018-02-06T08:03:05.961Z,25.40
2018-02-06T08:04:05.944Z,25.00
2018-02-06T08:05:05.936Z,24.70
2018-02-06T08:06:05.920Z,25.30
2018-02-06T08:07:05.905Z,24.30
2018-02-06T08:08:05.892Z,24.10
2018-02-06T08:09:05.882Z,23.60
2018-02-06T08:10:05.867Z,24.40
2018-02-06T08:11:05.856Z,23.80
2018-02-06T08:12:05.841Z,24.70
2018-02-06T08:13:05.828Z,23.20
2018-02-06T08:14:05.815Z,22.90
2018-02-06T08:15:05.807Z,22.90
2018-02-06T08:16:05.788Z,23.10
2018-02-06T08:17:05.776Z,23.50
2018-02-06T08:18:05.770Z,23.00
2018-02-06T08:19:05.749Z,23.00
2018-02-06T08:20:05.742Z,22.60
2018-02-06T08:21:05.726Z,23.40
2018-02-06T08:22:05.711Z,23.50
2018-02-06T08:23:05.699Z,23.50
2018-02-06T08:24:05.693Z,22.90
2018-02-06T08:25:05.678Z,22.50
2018-02-06T08:26:05.715Z,21.80
2018-02-06T08:27:05.649Z,21.80
2018-02-06T08:28:05.635Z,21.80
2018-02-06T08:29:05.627Z,21.30
2018-02-06T08:30:05.608Z,21.50
2018-02-06T08:31:05.598Z,21.10
2018-02-06T08:32:05.584Z,21.20
2018-02-06T08:33:05.571Z,21.90
2018-02-06T08:34:05.560Z,21.60
2018-02-06T08:35:05.547Z,21.20
2018-02-06T08:36:05.536Z,20.10
2018-02-06T08:37:05.524Z,20.00
2018-02-06T08:38:05.507Z,20.00
2018-02-06T08:39:05.494Z,19.90
2018-02-06T08:40:05.484Z,20.10
2018-02-06T08:41:05.472Z,19.20
2018-02-06T08:42:05.457Z,20.00
2018-02-06T08:43:05.445Z,20.40
2018-02-06T08:44:05.433Z,19.80
2018-02-06T08:45:05.421Z,19.90
2018-02-06T08:46:05.405Z,19.40
2018-02-06T08:47:05.397Z,18.40
2018-02-06T08:48:05.383Z,18.50
2018-02-06T08:49:05.371Z,19.10
2018-02-06T08:50:05.361Z,18.70
2018-02-06T08:51:05.348Z,18.30
2018-02-06T08:52:05.335Z,18.40
2018-02-06T08:53:05.323Z,18.50
2018-02-06T08:54:05.310Z,17.70
2018-02-06T08:55:05.298Z,18.70
2018-02-06T08:56:05.284Z,18.10
2018-02-06T08:57:05.272Z,18.20
2018-02-06T08:58:05.262Z,19.00
2018-02-06T08:59:05.250Z,18.10
2018-02-06T09:00:05.236Z,18.30
2018-02-06T09:01:05.223Z,18.30
2018-02-06T09:02:05.212Z,18.80
2018-02-06T09:03:05.199Z,18.30
2018-02-06T09:04:05.190Z,18.10
2018-02-06T09:05:05.176Z,18.10
2018-02-06T09:06:05.166Z,18.10
2018-02-06T09:07:05.159Z,18.10
2018-02-06T09:08:05.140Z,17.00
2018-02-06T09:09:05.129Z,16.90
2018-02-06T09:10:05.119Z,16.70
2018-02-06T09:11:05.106Z,16.90
2018-02-06T09:12:05.090Z,16.40
2018-02-06T09:13:05.080Z,16.70
2018-02-06T09:14:05.068Z,15.50
2018-02-06T09:15:05.062Z,15.40
2018-02-06T09:16:05.045Z,14.90
2018-02-06T09:17:05.036Z,15.40
2018-02-06T09:18:05.021Z,13.70
2018-02-06T09:19:05.012Z,13.70
2018-02-06T09:20:04.996Z,13.70
2018-02-06T09:21:04.985Z,13.70
2018-02-06T09:22:04.975Z,13.50
2018-02-06T09:23:04.960Z,13.90
2018-02-06T09:24:04.950Z,13.20
2018-02-06T09:25:04.937Z,13.70
2018-02-06T09:26:04.927Z,13.40
2018-02-06T09:27:04.916Z,13.40
2018-02-06T09:28:04.902Z,13.30
2018-02-06T09:29:04.890Z,12.80
2018-02-06T09:30:04.879Z,12.80
2018-02-06T09:31:04.867Z,12.40
2018-02-06T09:32:04.855Z,12.20
2018-02-06T09:33:04.845Z,12.90
2018-02-06T09:34:04.833Z,13.00
2018-02-06T09:35:04.820Z,13.20
2018-02-06T09:36:04.807Z,11.80
2018-02-06T09:37:04.795Z,12.40
2018-02-06T09:38:04.784Z,12.00
2018-02-06T09:39:04.772Z,12.90
2018-02-06T09:40:04.762Z,13.30
2018-02-06T09:41:04.751Z,13.40
2018-02-06T09:42:04.738Z,13.00
2018-02-06T09:43:04.726Z,13.30
2018-02-06T09:44:04.713Z,13.00
2018-02-06T09:45:04.708Z,12.70
2018-02-06T09:46:04.691Z,11.10
2018-02-06T09:47:04.678Z,12.20
2018-02-06T09:48:04.666Z,10.60
2018-02-06T09:49:04.658Z,7.80
2018-02-06T09:50:04.642Z,7.30
2018-02-06T09:51:04.632Z,7.00
2018-02-06T09:52:04.617Z,7.30
2018-02-06T09:53:04.606Z,7.20
2018-02-06T09:54:04.598Z,8.00
2018-02-06T09:55:04.607Z,7.20
2018-02-06T09:56:04.572Z,7.00
2018-02-06T09:57:04.562Z,7.50
2018-02-06T09:58:04.549Z,7.50
2018-02-06T09:59:04.537Z,7.00
2018-02-06T10:00:04.526Z,7.60
2018-02-06T10:01:04.518Z,7.40
2018-02-06T10:02:04.503Z,7.00
2018-02-06T10:03:04.492Z,7.70
2018-02-06T10:04:04.480Z,7.50
2018-02-06T10:05:04.468Z,7.20
2018-02-06T10:06:04.459Z,7.40
2018-02-06T10:07:04.446Z,7.80
2018-02-06T10:08:04.472Z,7.80
2018-02-06T10:09:04.450Z,7.50
2018-02-06T10:10:04.463Z,7.10
2018-02-06T10:11:04.397Z,6.60
2018-02-06T10:12:04.388Z,6.50
2018-02-06T10:13:04.373Z,6.60
2018-02-06T10:14:04.364Z,6.70
2018-02-06T10:15:04.352Z,6.90
2018-02-06T10:16:04.341Z,6.50
2018-02-06T10:17:04.331Z,6.10
2018-02-06T10:18:04.315Z,6.40
2018-02-06T10:19:04.307Z,6.10
2018-02-06T10:20:04.294Z,6.80
2018-02-06T10:21:04.283Z,7.20
2018-02-06T10:22:04.278Z,7.40
2018-02-06T10:23:04.260Z,6.40
2018-02-06T10:24:04.247Z,5.80
2018-02-06T10:25:04.237Z,6.10
2018-02-06T10:26:04.226Z,6.30
2018-02-06T10:27:04.215Z,6.20
2018-02-06T10:28:04.206Z,6.50
2018-02-06T10:29:04.197Z,6.50
2018-02-06T10:30:04.181Z,6.20
2018-02-06T10:31:04.171Z,6.60
2018-02-06T10:32:04.157Z,6.80
2018-02-06T10:33:04.149Z,6.60
2018-02-06T10:34:04.136Z,6.30
2018-02-06T10:35:04.126Z,5.90
2018-02-06T10:36:04.113Z,6.20
2018-02-06T10:37:04.099Z,6.00
2018-02-06T10:38:04.091Z,6.10
2018-02-06T10:39:04.084Z,5.80
2018-02-06T10:40:04.067Z,5.70
2018-02-06T10:41:04.059Z,6.30
2018-02-06T10:42:04.046Z,5.90
2018-02-06T10:43:04.035Z,6.00
2018-02-06T10:44:04.023Z,6.20
2018-02-06T10:45:04.013Z,5.90
2018-02-06T10:46:03.999Z,5.80
2018-02-06T10:47:04.000Z,5.80
2018-02-06T10:48:03.980Z,5.90
2018-02-06T10:49:03.972Z,5.60
2018-02-06T10:50:03.957Z,5.80
2018-02-06T10:51:03.945Z,5.80
2018-02-06T10:52:03.934Z,5.70
2018-02-06T10:53:03.922Z,5.90
2018-02-06T10:54:03.912Z,6.80
2018-02-06T10:55:03.901Z,6.20
2018-02-06T10:56:03.891Z,6.50
2018-02-06T10:57:03.879Z,6.30
2018-02-06T10:58:03.869Z,6.60
2018-02-06T10:59:03.871Z,6.60
2018-02-06T11:00:03.846Z,6.00
2018-02-06T11:01:03.835Z,6.20
2018-02-06T11:02:03.827Z,6.10
2018-02-06T11:03:03.813Z,5.90
2018-02-06T11:04:03.803Z,5.70
2018-02-06T11:05:03.792Z,5.80
2018-02-06T11:06:03.782Z,5.60
2018-02-06T11:07:03.772Z,5.70
2018-02-06T11:08:03.760Z,5.80
2018-02-06T11:09:03.749Z,5.90
2018-02-06T11:10:03.741Z,6.20
2018-02-06T11:11:03.729Z,6.00
2018-02-06T11:12:11.361Z,5.50
2018-02-06T11:13:58.105Z,5.40
2018-02-06T11:14:58.072Z,5.60
2018-02-06T11:15:58.061Z,5.30
2018-02-06T11:16:58.052Z,4.90
2018-02-06T11:17:58.041Z,5.20
2018-02-06T11:18:58.030Z,5.10
2018-02-06T11:19:58.021Z,5.00
2018-02-06T11:20:58.007Z,4.90
2018-02-06T11:21:57.997Z,5.20
2018-02-06T11:22:57.990Z,5.40
2018-02-06T11:23:57.975Z,5.60
2018-02-06T11:24:57.969Z,5.70
2018-02-06T11:25:57.955Z,5.60
2018-02-06T11:26:57.944Z,5.10
2018-02-06T11:27:57.934Z,4.60
2018-02-06T11:28:57.926Z,4.10
2018-02-06T11:29:57.914Z,4.10
2018-02-06T11:30:57.904Z,4.10
2018-02-06T11:31:57.893Z,4.10
2018-02-06T11:32:57.881Z,4.20
2018-02-06T11:33:57.871Z,4.20
2018-02-06T11:34:57.862Z,4.40
2018-02-06T11:35:57.850Z,4.90
2018-02-06T11:36:57.841Z,4.80
2018-02-06T11:37:57.831Z,4.90
2018-02-06T11:38:57.820Z,4.60
2018-02-06T11:39:57.809Z,4.60
2018-02-06T11:40:57.798Z,4.90
2018-02-06T11:41:57.789Z,5.00
2018-02-06T11:42:57.779Z,4.90
2018-02-06T11:43:57.767Z,4.70
2018-02-06T11:44:57.759Z,4.90
2018-02-06T11:45:57.791Z,5.10
2018-02-06T11:46:57.743Z,5.30
2018-02-06T11:47:57.726Z,5.50
2018-02-06T11:48:57.720Z,4.90
2018-02-06T11:49:57.705Z,5.10
2018-02-06T11:50:57.696Z,5.20
2018-02-06T11:51:57.686Z,5.00
2018-02-06T11:52:57.673Z,4.60
2018-02-06T11:53:57.664Z,5.20
2018-02-06T11:54:57.654Z,4.90
2018-02-06T11:55:57.643Z,4.70
2018-02-06T11:56:57.633Z,4.90
2018-02-06T11:57:57.621Z,4.90
2018-02-06T11:58:57.609Z,4.90
2018-02-06T11:59:57.599Z,4.60
2018-02-06T12:00:57.591Z,4.40
2018-02-06T12:01:57.580Z,4.30
2018-02-06T12:02:57.573Z,4.40
2018-02-06T12:03:57.559Z,4.70
2018-02-06T12:04:57.551Z,4.30
2018-02-06T12:05:57.538Z,3.80
2018-02-06T12:06:57.528Z,3.70
2018-02-06T12:07:57.518Z,3.90
2018-02-06T12:08:57.506Z,3.70
2018-02-06T12:09:57.499Z,3.90
2018-02-06T12:10:57.488Z,4.60
2018-02-06T12:11:57.478Z,4.40
2018-02-06T12:12:57.466Z,4.40
2018-02-06T12:13:57.456Z,4.40
2018-02-06T12:14:57.447Z,4.40
2018-02-06T12:15:57.436Z,3.70
2018-02-06T12:16:57.437Z,4.10
2018-02-06T12:17:57.416Z,4.10
2018-02-06T12:18:57.404Z,4.30
2018-02-06T12:19:57.396Z,4.20
2018-02-06T12:20:57.388Z,4.10
2018-02-06T12:21:57.375Z,4.30
2018-02-06T12:22:57.370Z,4.30
2018-02-06T12:23:57.355Z,4.40
2018-02-06T12:24:57.345Z,4.90
2018-02-06T12:25:57.335Z,4.60
2018-02-06T12:26:57.326Z,5.00
2018-02-06T12:27:57.315Z,4.70
2018-02-06T12:28:57.300Z,4.80
2018-02-06T12:29:57.297Z,4.90
2018-02-06T12:30:57.286Z,4.90
2018-02-06T12:31:57.274Z,5.20
2018-02-06T12:32:57.264Z,5.10
2018-02-06T12:33:57.255Z,5.00
2018-02-06T12:34:57.245Z,5.20
2018-02-06T12:35:57.234Z,5.00
2018-02-06T12:36:57.224Z,5.60
2018-02-06T12:37:57.214Z,5.60
2018-02-06T12:38:57.205Z,5.40
2018-02-06T12:39:57.195Z,5.30
2018-02-06T12:40:57.186Z,5.30
2018-02-06T12:41:57.175Z,5.30
2018-02-06T12:42:57.165Z,5.30
2018-02-06T12:43:57.153Z,5.10
2018-02-06T12:44:57.145Z,5.40
2018-02-06T12:45:57.135Z,5.30
2018-02-06T12:46:57.123Z,5.20
2018-02-06T12:47:57.114Z,5.30
2018-02-06T12:48:57.104Z,5.10
2018-02-06T12:49:57.091Z,5.30
2018-02-06T12:50:57.086Z,5.20
2018-02-06T12:51:57.075Z,5.10
2018-02-06T12:52:57.063Z,4.60
2018-02-06T12:53:57.057Z,4.40
2018-02-06T12:54:57.044Z,4.10
2018-02-06T12:55:57.029Z,4.10
2018-02-06T12:56:57.025Z,4.40
2018-02-06T12:57:57.013Z,4.00
2018-02-06T12:58:57.004Z,4.80
2018-02-06T12:59:56.997Z,5.30
2018-02-06T13:00:56.988Z,4.90
2018-02-06T13:01:56.972Z,4.90
2018-02-06T13:02:56.964Z,5.10
2018-02-06T13:03:56.952Z,5.20
2018-02-06T13:04:56.943Z,4.90
2018-02-06T13:05:56.940Z,5.30
2018-02-06T13:06:56.924Z,5.00
2018-02-06T13:07:56.911Z,5.00
2018-02-06T13:08:56.935Z,4.70
2018-02-06T13:09:56.894Z,4.80
2018-02-06T13:10:56.883Z,4.70
2018-02-06T13:11:56.877Z,4.50
2018-02-06T13:12:56.861Z,5.10
2018-02-06T13:13:56.853Z,5.10
2018-02-06T13:14:56.841Z,4.90
2018-02-06T13:15:56.830Z,4.80
2018-02-06T13:16:56.819Z,4.60
2018-02-06T13:17:56.813Z,4.40
2018-02-06T13:18:56.800Z,4.80
2018-02-06T13:19:56.788Z,4.40
2018-02-06T13:20:56.779Z,4.50
2018-02-06T13:21:56.775Z,4.40
2018-02-06T13:22:56.758Z,4.40
2018-02-06T13:23:56.753Z,4.30
2018-02-06T13:24:56.736Z,4.30
2018-02-06T13:25:56.733Z,4.10
2018-02-06T13:26:56.713Z,4.40
2018-02-06T13:27:56.706Z,4.00
2018-02-06T13:28:56.698Z,4.30
2018-02-06T13:29:56.687Z,4.20
2018-02-06T13:30:56.681Z,4.10
2018-02-06T13:31:56.660Z,4.60
2018-02-06T13:32:56.654Z,4.30
2018-02-06T13:33:56.644Z,4.50
2018-02-06T13:34:56.632Z,4.40
2018-02-06T13:35:56.622Z,4.30
2018-02-06T13:36:56.612Z,4.40
2018-02-06T13:37:56.601Z,4.20
2018-02-06T13:38:56.591Z,4.30
2018-02-06T13:39:56.582Z,4.70
2018-02-06T13:40:56.568Z,4.50
2018-02-06T13:41:56.558Z,3.90
2018-02-06T13:42:56.547Z,4.10
2018-02-06T13:43:56.536Z,4.00
2018-02-06T13:44:56.526Z,4.20
2018-02-06T13:45:56.517Z,4.20
2018-02-06T13:46:56.508Z,4.30
2018-02-06T13:47:56.494Z,4.20
2018-02-06T13:48:56.483Z,4.60
2018-02-06T13:49:56.472Z,4.10
2018-02-06T13:50:56.464Z,4.40
2018-02-06T13:51:56.452Z,4.00
2018-02-06T13:52:56.440Z,4.30
2018-02-06T13:53:56.429Z,4.20
2018-02-06T13:54:56.422Z,4.00
2018-02-06T13:55:56.406Z,4.50
2018-02-06T13:56:56.399Z,4.40
2018-02-06T13:57:56.395Z,4.10
2018-02-06T13:58:56.377Z,3.90
2018-02-06T13:59:56.367Z,4.10
2018-02-06T14:00:56.365Z,3.90
2018-02-06T14:01:56.348Z,4.20
2018-02-06T14:02:56.339Z,3.60
2018-02-06T14:03:56.327Z,3.90
2018-02-06T14:04:56.316Z,4.20
2018-02-06T14:05:56.306Z,3.90
2018-02-06T14:06:56.298Z,3.80
2018-02-06T14:07:56.282Z,3.90
2018-02-06T14:08:56.273Z,3.90
2018-02-06T14:09:56.263Z,3.80
2018-02-06T14:10:56.252Z,3.90
2018-02-06T14:11:56.241Z,4.00
2018-02-06T14:12:56.232Z,4.10
2018-02-06T14:13:56.219Z,3.70
2018-02-06T14:14:56.210Z,3.80
2018-02-06T14:15:56.201Z,3.90
2018-02-06T14:16:56.195Z,3.80
2018-02-06T14:17:56.177Z,3.80
2018-02-06T14:18:56.171Z,4.20
2018-02-06T14:19:56.155Z,4.10
2018-02-06T14:20:56.147Z,4.20
2018-02-06T14:21:56.141Z,3.50
2018-02-06T14:22:56.129Z,3.50
2018-02-06T14:23:56.115Z,3.50
2018-02-06T14:24:56.108Z,3.40
2018-02-06T14:25:56.095Z,3.00
2018-02-06T14:26:56.087Z,3.50
2018-02-06T14:27:56.075Z,3.40
2018-02-06T14:28:56.066Z,3.30
2018-02-06T14:29:56.055Z,3.20
2018-02-06T14:30:56.045Z,3.50
2018-02-06T14:31:56.039Z,3.20
2018-02-06T14:32:56.024Z,3.30
2018-02-06T14:33:56.013Z,3.60
2018-02-06T14:34:56.003Z,3.50
2018-02-06T14:35:55.991Z,3.30
2018-02-06T14:36:55.982Z,3.50
2018-02-06T14:37:55.969Z,3.40
2018-02-06T14:38:55.962Z,3.70
2018-02-06T14:39:55.951Z,3.90
2018-02-06T14:40:55.937Z,3.30
2018-02-06T14:41:55.929Z,3.70
2018-02-06T14:42:55.920Z,3.60
2018-02-06T14:43:55.906Z,3.60
2018-02-06T14:44:55.902Z,3.90
2018-02-06T14:45:55.889Z,4.10
2018-02-06T14:46:55.888Z,4.30
2018-02-06T14:47:55.869Z,4.00
2018-02-06T14:48:55.857Z,4.40
2018-02-06T14:49:55.845Z,4.60
2018-02-06T14:50:55.843Z,4.10
2018-02-06T14:51:55.831Z,3.60
2018-02-06T14:52:55.816Z,3.70
2018-02-06T14:53:55.806Z,3.60
2018-02-06T14:54:55.798Z,3.70
2018-02-06T14:55:55.791Z,3.70
2018-02-06T14:56:55.778Z,4.00
2018-02-06T14:57:55.763Z,3.50
2018-02-06T14:58:55.756Z,3.50
2018-02-06T14:59:55.746Z,3.70